sensor_id;sensor_type;location;lat;lon;timestamp;P1;durP1;ratioP1;P2;durP2;ratioP2
8001;SDS011;4046;48.774;8.732;2022-12-18T00:01:53;6.80;;;6.30;;
8001;SDS011;4046;48.774;8.732;2022-12-18T00:04:22;7.20;;;6.63;;
8001;SDS011;4046;48.774;8.732;2022-12-18T00:06:49;7.80;;;7.20;;
8001;SDS011;4046;48.774;8.732;2022-12-18T00:09:16;7.10;;;6.60;;
8001;SDS011;4046;48.774;8.732;2022-12-18T00:11:42;7.23;;;6.63;;
8001;SDS011;4046;48.774;8.732;2022-12-18T00:14:09;6.80;;;6.30;;
8001;SDS011;4046;48.774;8.732;2022-12-18T00:16:37;7.70;;;7.10;;
8001;SDS011;4046;48.774;8.732;2022-12-18T00:19:04;7.40;;;6.90;;
8001;SDS011;4046;48.774;8.732;2022-12-18T00:21:32;7.37;;;6.77;;
8001;SDS011;4046;48.774;8.732;2022-12-18T00:23:59;7.80;;;7.30;;
8001;SDS011;4046;48.774;8.732;2022-12-18T00:26:27;7.60;;;7.00;;
8001;SDS011;4046;48.774;8.732;2022-12-18T00:28:57;7.73;;;7.13;;
8001;SDS011;4046;48.774;8.732;2022-12-18T00:31:25;7.57;;;6.97;;
8001;SDS011;4046;48.774;8.732;2022-12-18T00:33:53;7.83;;;7.23;;
8001;SDS011;4046;48.774;8.732;2022-12-18T00:36:22;8.27;;;7.67;;
8001;SDS011;4046;48.774;8.732;2022-12-18T00:38:50;8.10;;;7.50;;
8001;SDS011;4046;48.774;8.732;2022-12-18T00:41:17;7.67;;;7.07;;
8001;SDS011;4046;48.774;8.732;2022-12-18T00:44:04;7.60;;;7.00;;
8001;SDS011;4046;48.774;8.732;2022-12-18T00:46:31;7.10;;;6.60;;
8001;SDS011;4046;48.774;8.732;2022-12-18T00:48:57;7.97;;;7.37;;
8001;SDS011;4046;48.774;8.732;2022-12-18T00:51:24;7.23;;;6.70;;
8001;SDS011;4046;48.774;8.732;2022-12-18T00:53:51;7.20;;;6.70;;
8001;SDS011;4046;48.774;8.732;2022-12-18T00:56:21;7.90;;;7.30;;
8001;SDS011;4046;48.774;8.732;2022-12-18T00:58:47;7.77;;;7.17;;
8001;SDS011;4046;48.774;8.732;2022-12-18T01:01:14;7.13;;;6.63;;
8001;SDS011;4046;48.774;8.732;2022-12-18T01:03:40;7.90;;;7.20;;
8001;SDS011;4046;48.774;8.732;2022-12-18T01:06:07;7.47;;;6.97;;
8001;SDS011;4046;48.774;8.732;2022-12-18T01:08:35;7.50;;;7.00;;
8001;SDS011;4046;48.774;8.732;2022-12-18T01:11:06;7.70;;;7.10;;
8001;SDS011;4046;48.774;8.732;2022-12-18T01:13:34;8.00;;;7.40;;
8001;SDS011;4046;48.774;8.732;2022-12-18T01:16:00;7.90;;;7.20;;
8001;SDS011;4046;48.774;8.732;2022-12-18T01:18:26;7.30;;;6.70;;
8001;SDS011;4046;48.774;8.732;2022-12-18T01:20:53;7.50;;;6.90;;
8001;SDS011;4046;48.774;8.732;2022-12-18T01:23:19;7.77;;;7.17;;
8001;SDS011;4046;48.774;8.732;2022-12-18T01:25:45;7.03;;;6.53;;
8001;SDS011;4046;48.774;8.732;2022-12-18T01:28:11;7.00;;;6.40;;
8001;SDS011;4046;48.774;8.732;2022-12-18T01:30:38;7.67;;;7.07;;
8001;SDS011;4046;48.774;8.732;2022-12-18T01:33:04;7.53;;;7.03;;
8001;SDS011;4046;48.774;8.732;2022-12-18T01:35:31;6.90;;;6.40;;
8001;SDS011;4046;48.774;8.732;2022-12-18T01:37:57;7.73;;;7.03;;
8001;SDS011;4046;48.774;8.732;2022-12-18T01:40:23;7.57;;;7.07;;
8001;SDS011;4046;48.774;8.732;2022-12-18T01:42:53;8.07;;;7.47;;
8001;SDS011;4046;48.774;8.732;2022-12-18T01:45:26;8.00;;;7.37;;
8001;SDS011;4046;48.774;8.732;2022-12-18T01:48:02;7.70;;;7.10;;
8001;SDS011;4046;48.774;8.732;2022-12-18T01:50:33;7.13;;;6.63;;
8001;SDS011;4046;48.774;8.732;2022-12-18T01:53:14;8.00;;;7.40;;
8001;SDS011;4046;48.774;8.732;2022-12-18T01:55:43;6.50;;;6.10;;
8001;SDS011;4046;48.774;8.732;2022-12-18T01:58:13;8.13;;;7.43;;
8001;SDS011;4046;48.774;8.732;2022-12-18T02:00:40;7.90;;;7.30;;
8001;SDS011;4046;48.774;8.732;2022-12-18T02:03:06;7.90;;;7.30;;
8001;SDS011;4046;48.774;8.732;2022-12-18T02:05:46;7.80;;;7.20;;
8001;SDS011;4046;48.774;8.732;2022-12-18T02:08:30;7.57;;;6.97;;
8001;SDS011;4046;48.774;8.732;2022-12-18T02:11:07;7.47;;;6.87;;
8001;SDS011;4046;48.774;8.732;2022-12-18T02:13:39;7.60;;;7.00;;
8001;SDS011;4046;48.774;8.732;2022-12-18T02:16:30;7.70;;;7.10;;
8001;SDS011;4046;48.774;8.732;2022-12-18T02:19:08;7.70;;;7.10;;
8001;SDS011;4046;48.774;8.732;2022-12-18T02:22:01;6.67;;;6.20;;
8001;SDS011;4046;48.774;8.732;2022-12-18T02:27:24;7.90;;;7.30;;
8001;SDS011;4046;48.774;8.732;2022-12-18T02:29:51;7.50;;;6.90;;
8001;SDS011;4046;48.774;8.732;2022-12-18T02:32:22;7.80;;;7.20;;
8001;SDS011;4046;48.774;8.732;2022-12-18T02:34:53;7.60;;;7.10;;
8001;SDS011;4046;48.774;8.732;2022-12-18T02:37:21;7.60;;;7.00;;
8001;SDS011;4046;48.774;8.732;2022-12-18T02:39:51;7.83;;;7.23;;
8001;SDS011;4046;48.774;8.732;2022-12-18T02:42:20;7.80;;;7.20;;
8001;SDS011;4046;48.774;8.732;2022-12-18T02:44:47;7.60;;;7.00;;
8001;SDS011;4046;48.774;8.732;2022-12-18T02:47:17;8.40;;;7.70;;
8001;SDS011;4046;48.774;8.732;2022-12-18T02:49:57;7.53;;;6.93;;
8001;SDS011;4046;48.774;8.732;2022-12-18T02:57:54;7.37;;;6.87;;
8001;SDS011;4046;48.774;8.732;2022-12-18T03:01:16;8.07;;;7.47;;
8001;SDS011;4046;48.774;8.732;2022-12-18T03:04:11;8.00;;;7.40;;
8001;SDS011;4046;48.774;8.732;2022-12-18T03:06:21;7.93;;;7.33;;
8001;SDS011;4046;48.774;8.732;2022-12-18T03:08:52;9.07;;;8.37;;
8001;SDS011;4046;48.774;8.732;2022-12-18T03:11:24;7.90;;;7.30;;
8001;SDS011;4046;48.774;8.732;2022-12-18T03:14:20;7.90;;;7.27;;
8001;SDS011;4046;48.774;8.732;2022-12-18T03:16:48;7.73;;;7.13;;
8001;SDS011;4046;48.774;8.732;2022-12-18T03:19:19;7.30;;;6.80;;
8001;SDS011;4046;48.774;8.732;2022-12-18T03:21:51;8.07;;;7.47;;
8001;SDS011;4046;48.774;8.732;2022-12-18T03:24:21;7.93;;;7.33;;
8001;SDS011;4046;48.774;8.732;2022-12-18T03:26:54;8.67;;;7.97;;
8001;SDS011;4046;48.774;8.732;2022-12-18T03:29:25;7.93;;;7.33;;
8001;SDS011;4046;48.774;8.732;2022-12-18T03:32:02;7.77;;;7.17;;
8001;SDS011;4046;48.774;8.732;2022-12-18T03:34:35;7.50;;;7.00;;
8001;SDS011;4046;48.774;8.732;2022-12-18T03:37:04;7.87;;;7.27;;
8001;SDS011;4046;48.774;8.732;2022-12-18T03:39:31;8.23;;;7.63;;
8001;SDS011;4046;48.774;8.732;2022-12-18T03:42:05;8.53;;;7.83;;
8001;SDS011;4046;48.774;8.732;2022-12-18T03:47:15;8.10;;;7.50;;
8001;SDS011;4046;48.774;8.732;2022-12-18T03:52:38;8.57;;;7.87;;
8001;SDS011;4046;48.774;8.732;2022-12-18T03:55:22;8.40;;;7.80;;
8001;SDS011;4046;48.774;8.732;2022-12-18T03:57:51;8.63;;;7.93;;
8001;SDS011;4046;48.774;8.732;2022-12-18T04:00:18;8.60;;;8.00;;
8001;SDS011;4046;48.774;8.732;2022-12-18T04:02:48;8.40;;;7.70;;
8001;SDS011;4046;48.774;8.732;2022-12-18T04:05:17;8.70;;;8.00;;
8001;SDS011;4046;48.774;8.732;2022-12-18T04:07:46;8.20;;;7.60;;
8001;SDS011;4046;48.774;8.732;2022-12-18T04:10:14;8.17;;;7.47;;
8001;SDS011;4046;48.774;8.732;2022-12-18T04:12:42;8.70;;;8.00;;
8001;SDS011;4046;48.774;8.732;2022-12-18T04:15:08;7.73;;;7.13;;
8001;SDS011;4046;48.774;8.732;2022-12-18T04:17:35;7.90;;;7.30;;
8001;SDS011;4046;48.774;8.732;2022-12-18T04:20:02;8.63;;;7.83;;
8001;SDS011;4046;48.774;8.732;2022-12-18T04:22:29;9.03;;;8.23;;
8001;SDS011;4046;48.774;8.732;2022-12-18T04:24:55;8.23;;;7.63;;
8001;SDS011;4046;48.774;8.732;2022-12-18T04:27:21;7.80;;;7.30;;
8001;SDS011;4046;48.774;8.732;2022-12-18T04:29:47;8.23;;;7.63;;
8001;SDS011;4046;48.774;8.732;2022-12-18T04:32:13;7.53;;;7.00;;
8001;SDS011;4046;48.774;8.732;2022-12-18T04:34:40;7.43;;;6.93;;
8001;SDS011;4046;48.774;8.732;2022-12-18T04:37:06;8.27;;;7.67;;
8001;SDS011;4046;48.774;8.732;2022-12-18T04:39:32;7.93;;;7.33;;
8001;SDS011;4046;48.774;8.732;2022-12-18T04:41:58;7.60;;;7.07;;
8001;SDS011;4046;48.774;8.732;2022-12-18T04:44:25;7.83;;;7.23;;
8001;SDS011;4046;48.774;8.732;2022-12-18T04:46:51;7.73;;;7.20;;
8001;SDS011;4046;48.774;8.732;2022-12-18T04:49:17;8.07;;;7.37;;
8001;SDS011;4046;48.774;8.732;2022-12-18T04:51:43;7.87;;;7.27;;
8001;SDS011;4046;48.774;8.732;2022-12-18T04:54:09;7.87;;;7.27;;
8001;SDS011;4046;48.774;8.732;2022-12-18T04:56:35;7.90;;;7.40;;
8001;SDS011;4046;48.774;8.732;2022-12-18T04:59:02;8.20;;;7.60;;
8001;SDS011;4046;48.774;8.732;2022-12-18T05:01:28;7.40;;;6.90;;
8001;SDS011;4046;48.774;8.732;2022-12-18T05:03:54;8.07;;;7.47;;
8001;SDS011;4046;48.774;8.732;2022-12-18T05:06:20;8.03;;;7.43;;
8001;SDS011;4046;48.774;8.732;2022-12-18T05:08:46;7.13;;;6.63;;
8001;SDS011;4046;48.774;8.732;2022-12-18T05:11:13;7.27;;;6.77;;
8001;SDS011;4046;48.774;8.732;2022-12-18T05:13:43;8.27;;;7.57;;
8001;SDS011;4046;48.774;8.732;2022-12-18T05:16:10;7.80;;;7.20;;
8001;SDS011;4046;48.774;8.732;2022-12-18T05:18:37;7.80;;;7.20;;
8001;SDS011;4046;48.774;8.732;2022-12-18T05:21:03;7.87;;;7.27;;
8001;SDS011;4046;48.774;8.732;2022-12-18T05:23:29;7.63;;;7.00;;
8001;SDS011;4046;48.774;8.732;2022-12-18T05:26:00;7.53;;;6.97;;
8001;SDS011;4046;48.774;8.732;2022-12-18T05:28:29;8.23;;;7.53;;
8001;SDS011;4046;48.774;8.732;2022-12-18T05:30:57;7.43;;;6.83;;
8001;SDS011;4046;48.774;8.732;2022-12-18T05:33:25;6.90;;;6.40;;
8001;SDS011;4046;48.774;8.732;2022-12-18T05:35:53;7.83;;;7.23;;
8001;SDS011;4046;48.774;8.732;2022-12-18T05:38:21;6.80;;;6.30;;
8001;SDS011;4046;48.774;8.732;2022-12-18T05:40:49;7.30;;;6.80;;
8001;SDS011;4046;48.774;8.732;2022-12-18T05:43:16;6.87;;;6.37;;
8001;SDS011;4046;48.774;8.732;2022-12-18T05:45:43;7.50;;;6.90;;
8001;SDS011;4046;48.774;8.732;2022-12-18T05:48:10;7.10;;;6.60;;
8001;SDS011;4046;48.774;8.732;2022-12-18T05:50:36;6.90;;;6.40;;
8001;SDS011;4046;48.774;8.732;2022-12-18T05:53:04;6.70;;;6.13;;
8001;SDS011;4046;48.774;8.732;2022-12-18T05:55:34;7.07;;;6.50;;
8001;SDS011;4046;48.774;8.732;2022-12-18T05:58:02;7.40;;;6.80;;
8001;SDS011;4046;48.774;8.732;2022-12-18T06:00:29;6.40;;;5.90;;
8001;SDS011;4046;48.774;8.732;2022-12-18T06:02:57;7.23;;;6.67;;
8001;SDS011;4046;48.774;8.732;2022-12-18T06:05:24;6.77;;;6.27;;
8001;SDS011;4046;48.774;8.732;2022-12-18T06:07:51;6.63;;;6.23;;
8001;SDS011;4046;48.774;8.732;2022-12-18T06:10:17;7.60;;;7.00;;
8001;SDS011;4046;48.774;8.732;2022-12-18T06:12:44;6.40;;;5.90;;
8001;SDS011;4046;48.774;8.732;2022-12-18T06:15:10;7.40;;;6.80;;
8001;SDS011;4046;48.774;8.732;2022-12-18T06:17:36;6.93;;;6.43;;
8001;SDS011;4046;48.774;8.732;2022-12-18T06:20:03;6.60;;;6.10;;
8001;SDS011;4046;48.774;8.732;2022-12-18T06:22:30;6.40;;;5.90;;
8001;SDS011;4046;48.774;8.732;2022-12-18T06:24:57;6.10;;;5.70;;
8001;SDS011;4046;48.774;8.732;2022-12-18T06:27:24;7.73;;;7.13;;
8001;SDS011;4046;48.774;8.732;2022-12-18T06:29:51;6.80;;;6.30;;
8001;SDS011;4046;48.774;8.732;2022-12-18T06:32:17;6.17;;;5.77;;
8001;SDS011;4046;48.774;8.732;2022-12-18T06:34:43;6.47;;;5.97;;
8001;SDS011;4046;48.774;8.732;2022-12-18T06:37:09;6.13;;;5.63;;
8001;SDS011;4046;48.774;8.732;2022-12-18T06:39:35;6.00;;;5.60;;
8001;SDS011;4046;48.774;8.732;2022-12-18T06:42:02;6.53;;;6.03;;
8001;SDS011;4046;48.774;8.732;2022-12-18T06:44:29;6.67;;;6.10;;
8001;SDS011;4046;48.774;8.732;2022-12-18T06:46:55;6.43;;;5.93;;
8001;SDS011;4046;48.774;8.732;2022-12-18T06:49:21;6.73;;;6.23;;
8001;SDS011;4046;48.774;8.732;2022-12-18T06:51:47;6.40;;;5.93;;
8001;SDS011;4046;48.774;8.732;2022-12-18T06:54:13;6.53;;;6.03;;
8001;SDS011;4046;48.774;8.732;2022-12-18T06:56:39;5.60;;;5.20;;
8001;SDS011;4046;48.774;8.732;2022-12-18T06:59:06;6.07;;;5.57;;
8001;SDS011;4046;48.774;8.732;2022-12-18T07:01:32;5.90;;;5.50;;
8001;SDS011;4046;48.774;8.732;2022-12-18T07:03:58;6.70;;;6.20;;
8001;SDS011;4046;48.774;8.732;2022-12-18T07:06:25;5.90;;;5.40;;
8001;SDS011;4046;48.774;8.732;2022-12-18T07:08:52;5.00;;;4.67;;
8001;SDS011;4046;48.774;8.732;2022-12-18T07:11:19;5.47;;;5.07;;
8001;SDS011;4046;48.774;8.732;2022-12-18T07:13:46;5.73;;;5.33;;
8001;SDS011;4046;48.774;8.732;2022-12-18T07:16:17;5.90;;;5.50;;
8001;SDS011;4046;48.774;8.732;2022-12-18T07:18:45;5.23;;;4.93;;
8001;SDS011;4046;48.774;8.732;2022-12-18T07:21:15;5.70;;;5.30;;
8001;SDS011;4046;48.774;8.732;2022-12-18T07:23:43;5.20;;;4.80;;
8001;SDS011;4046;48.774;8.732;2022-12-18T07:26:12;5.87;;;5.47;;
8001;SDS011;4046;48.774;8.732;2022-12-18T07:28:40;6.63;;;6.13;;
8001;SDS011;4046;48.774;8.732;2022-12-18T07:31:14;6.57;;;6.07;;
8001;SDS011;4046;48.774;8.732;2022-12-18T07:33:45;5.53;;;5.13;;
8001;SDS011;4046;48.774;8.732;2022-12-18T07:36:12;5.97;;;5.57;;
8001;SDS011;4046;48.774;8.732;2022-12-18T07:38:39;6.00;;;5.53;;
8001;SDS011;4046;48.774;8.732;2022-12-18T07:41:06;5.77;;;5.20;;
8001;SDS011;4046;48.774;8.732;2022-12-18T07:43:34;5.00;;;4.70;;
8001;SDS011;4046;48.774;8.732;2022-12-18T07:46:01;5.60;;;5.20;;
8001;SDS011;4046;48.774;8.732;2022-12-18T07:48:28;5.83;;;5.43;;
8001;SDS011;4046;48.774;8.732;2022-12-18T07:50:58;5.50;;;5.10;;
8001;SDS011;4046;48.774;8.732;2022-12-18T07:53:25;5.70;;;5.30;;
8001;SDS011;4046;48.774;8.732;2022-12-18T07:55:59;5.20;;;4.87;;
8001;SDS011;4046;48.774;8.732;2022-12-18T07:58:26;5.57;;;5.17;;
8001;SDS011;4046;48.774;8.732;2022-12-18T08:00:52;5.33;;;4.93;;
8001;SDS011;4046;48.774;8.732;2022-12-18T08:03:19;5.70;;;5.30;;
8001;SDS011;4046;48.774;8.732;2022-12-18T08:05:45;5.83;;;5.43;;
8001;SDS011;4046;48.774;8.732;2022-12-18T08:08:11;5.33;;;4.93;;
8001;SDS011;4046;48.774;8.732;2022-12-18T08:10:38;5.77;;;5.37;;
8001;SDS011;4046;48.774;8.732;2022-12-18T08:13:04;5.60;;;5.20;;
8001;SDS011;4046;48.774;8.732;2022-12-18T08:15:31;5.20;;;4.80;;
8001;SDS011;4046;48.774;8.732;2022-12-18T08:17:57;5.97;;;5.50;;
8001;SDS011;4046;48.774;8.732;2022-12-18T08:20:23;5.70;;;5.30;;
8001;SDS011;4046;48.774;8.732;2022-12-18T08:22:49;5.70;;;5.30;;
8001;SDS011;4046;48.774;8.732;2022-12-18T08:25:16;5.27;;;4.87;;
8001;SDS011;4046;48.774;8.732;2022-12-18T08:27:42;5.13;;;4.80;;
8001;SDS011;4046;48.774;8.732;2022-12-18T08:30:08;5.40;;;5.00;;
8001;SDS011;4046;48.774;8.732;2022-12-18T08:32:35;5.43;;;5.03;;
8001;SDS011;4046;48.774;8.732;2022-12-18T08:35:02;5.60;;;5.17;;
8001;SDS011;4046;48.774;8.732;2022-12-18T08:37:28;5.27;;;4.97;;
8001;SDS011;4046;48.774;8.732;2022-12-18T08:39:54;5.43;;;5.03;;
8001;SDS011;4046;48.774;8.732;2022-12-18T08:42:20;6.20;;;5.70;;
8001;SDS011;4046;48.774;8.732;2022-12-18T08:45:05;5.40;;;5.00;;
8001;SDS011;4046;48.774;8.732;2022-12-18T08:47:32;5.77;;;5.37;;
8001;SDS011;4046;48.774;8.732;2022-12-18T08:49:58;5.90;;;5.40;;
8001;SDS011;4046;48.774;8.732;2022-12-18T08:52:24;5.53;;;5.13;;
8001;SDS011;4046;48.774;8.732;2022-12-18T08:54:50;5.47;;;5.07;;
8001;SDS011;4046;48.774;8.732;2022-12-18T08:57:17;5.70;;;5.30;;
8001;SDS011;4046;48.774;8.732;2022-12-18T08:59:43;5.30;;;4.90;;
8001;SDS011;4046;48.774;8.732;2022-12-18T09:02:10;5.00;;;4.60;;
8001;SDS011;4046;48.774;8.732;2022-12-18T09:04:36;5.67;;;5.27;;
8001;SDS011;4046;48.774;8.732;2022-12-18T09:07:03;4.97;;;4.67;;
8001;SDS011;4046;48.774;8.732;2022-12-18T09:09:29;5.07;;;4.67;;
8001;SDS011;4046;48.774;8.732;2022-12-18T09:11:55;5.47;;;5.07;;
8001;SDS011;4046;48.774;8.732;2022-12-18T09:14:21;5.73;;;5.33;;
8001;SDS011;4046;48.774;8.732;2022-12-18T09:16:47;5.20;;;4.80;;
8001;SDS011;4046;48.774;8.732;2022-12-18T09:19:14;6.00;;;5.60;;
8001;SDS011;4046;48.774;8.732;2022-12-18T09:21:40;5.40;;;5.00;;
8001;SDS011;4046;48.774;8.732;2022-12-18T09:24:06;5.07;;;4.67;;
8001;SDS011;4046;48.774;8.732;2022-12-18T09:26:37;5.93;;;5.53;;
8001;SDS011;4046;48.774;8.732;2022-12-18T09:29:03;5.13;;;4.73;;
8001;SDS011;4046;48.774;8.732;2022-12-18T09:31:29;6.03;;;5.57;;
8001;SDS011;4046;48.774;8.732;2022-12-18T09:33:56;5.80;;;5.27;;
8001;SDS011;4046;48.774;8.732;2022-12-18T09:36:22;5.57;;;5.17;;
8001;SDS011;4046;48.774;8.732;2022-12-18T09:38:48;5.87;;;5.37;;
8001;SDS011;4046;48.774;8.732;2022-12-18T09:41:23;5.10;;;4.80;;
8001;SDS011;4046;48.774;8.732;2022-12-18T09:44:05;5.50;;;5.10;;
8001;SDS011;4046;48.774;8.732;2022-12-18T09:46:43;5.83;;;5.43;;
8001;SDS011;4046;48.774;8.732;2022-12-18T09:49:14;5.80;;;5.40;;
8001;SDS011;4046;48.774;8.732;2022-12-18T09:51:49;5.10;;;4.80;;
8001;SDS011;4046;48.774;8.732;2022-12-18T09:54:22;6.00;;;5.60;;
8001;SDS011;4046;48.774;8.732;2022-12-18T09:57:04;5.93;;;5.53;;
8001;SDS011;4046;48.774;8.732;2022-12-18T09:59:35;5.60;;;5.20;;
8001;SDS011;4046;48.774;8.732;2022-12-18T10:02:13;5.73;;;5.33;;
8001;SDS011;4046;48.774;8.732;2022-12-18T10:04:42;5.40;;;5.10;;
8001;SDS011;4046;48.774;8.732;2022-12-18T10:07:14;5.73;;;5.33;;
8001;SDS011;4046;48.774;8.732;2022-12-18T10:10:01;5.77;;;5.37;;
8001;SDS011;4046;48.774;8.732;2022-12-18T10:20:55;6.07;;;5.67;;
8001;SDS011;4046;48.774;8.732;2022-12-18T10:23:27;6.23;;;5.83;;
8001;SDS011;4046;48.774;8.732;2022-12-18T10:26:20;5.63;;;5.27;;
8001;SDS011;4046;48.774;8.732;2022-12-18T10:28:46;6.00;;;5.50;;
8001;SDS011;4046;48.774;8.732;2022-12-18T10:31:18;6.10;;;5.70;;
8001;SDS011;4046;48.774;8.732;2022-12-18T10:33:46;5.83;;;5.43;;
8001;SDS011;4046;48.774;8.732;2022-12-18T10:36:12;5.77;;;5.33;;
8001;SDS011;4046;48.774;8.732;2022-12-18T10:38:39;5.77;;;5.37;;
8001;SDS011;4046;48.774;8.732;2022-12-18T10:43:44;6.43;;;5.93;;
8001;SDS011;4046;48.774;8.732;2022-12-18T10:48:55;5.47;;;5.07;;
8001;SDS011;4046;48.774;8.732;2022-12-18T10:51:24;5.50;;;5.10;;
8001;SDS011;4046;48.774;8.732;2022-12-18T10:53:54;5.73;;;5.30;;
8001;SDS011;4046;48.774;8.732;2022-12-18T10:56:27;5.73;;;5.33;;
8001;SDS011;4046;48.774;8.732;2022-12-18T10:58:55;5.67;;;5.27;;
8001;SDS011;4046;48.774;8.732;2022-12-18T11:01:23;4.73;;;4.43;;
8001;SDS011;4046;48.774;8.732;2022-12-18T11:06:17;5.53;;;5.13;;
8001;SDS011;4046;48.774;8.732;2022-12-18T11:09:00;6.03;;;5.57;;
8001;SDS011;4046;48.774;8.732;2022-12-18T11:11:28;5.30;;;4.90;;
8001;SDS011;4046;48.774;8.732;2022-12-18T11:16:26;5.50;;;5.10;;
8001;SDS011;4046;48.774;8.732;2022-12-18T11:18:54;5.83;;;5.33;;
8001;SDS011;4046;48.774;8.732;2022-12-18T11:21:21;5.10;;;4.70;;
8001;SDS011;4046;48.774;8.732;2022-12-18T11:23:49;4.53;;;4.20;;
8001;SDS011;4046;48.774;8.732;2022-12-18T11:26:17;4.97;;;4.60;;
8001;SDS011;4046;48.774;8.732;2022-12-18T11:28:45;5.93;;;5.43;;
8001;SDS011;4046;48.774;8.732;2022-12-18T11:33:49;5.10;;;4.70;;
8001;SDS011;4046;48.774;8.732;2022-12-18T11:36:22;5.27;;;4.87;;
8001;SDS011;4046;48.774;8.732;2022-12-18T11:38:52;4.83;;;4.50;;
8001;SDS011;4046;48.774;8.732;2022-12-18T11:41:28;5.47;;;5.07;;
8001;SDS011;4046;48.774;8.732;2022-12-18T11:44:27;5.67;;;5.27;;
8001;SDS011;4046;48.774;8.732;2022-12-18T11:47:01;5.43;;;5.03;;
8001;SDS011;4046;48.774;8.732;2022-12-18T11:49:35;5.73;;;5.23;;
8001;SDS011;4046;48.774;8.732;2022-12-18T11:52:24;6.10;;;5.50;;
8001;SDS011;4046;48.774;8.732;2022-12-18T11:54:55;7.60;;;6.90;;
8001;SDS011;4046;48.774;8.732;2022-12-18T12:00:15;8.47;;;6.27;;
8001;SDS011;4046;48.774;8.732;2022-12-18T12:05:44;7.10;;;6.40;;
8001;SDS011;4046;48.774;8.732;2022-12-18T12:14:16;7.07;;;6.37;;
8001;SDS011;4046;48.774;8.732;2022-12-18T12:22:32;8.43;;;6.57;;
8001;SDS011;4046;48.774;8.732;2022-12-18T12:28:09;9.60;;;6.47;;
8001;SDS011;4046;48.774;8.732;2022-12-18T12:33:31;12.40;;;6.20;;
8001;SDS011;4046;48.774;8.732;2022-12-18T12:39:08;5.87;;;5.27;;
8001;SDS011;4046;48.774;8.732;2022-12-18T12:41:39;7.00;;;6.00;;
8001;SDS011;4046;48.774;8.732;2022-12-18T12:44:29;6.90;;;6.20;;
8001;SDS011;4046;48.774;8.732;2022-12-18T12:47:00;12.13;;;6.43;;
8001;SDS011;4046;48.774;8.732;2022-12-18T12:49:32;7.00;;;6.30;;
8001;SDS011;4046;48.774;8.732;2022-12-18T12:54:33;6.63;;;5.67;;
8001;SDS011;4046;48.774;8.732;2022-12-18T12:57:11;6.30;;;5.70;;
8001;SDS011;4046;48.774;8.732;2022-12-18T13:05:33;6.40;;;5.90;;
8001;SDS011;4046;48.774;8.732;2022-12-18T13:08:07;5.50;;;5.10;;
8001;SDS011;4046;48.774;8.732;2022-12-18T13:10:46;7.07;;;5.80;;
8001;SDS011;4046;48.774;8.732;2022-12-18T13:13:13;6.57;;;5.47;;
8001;SDS011;4046;48.774;8.732;2022-12-18T13:18:16;7.00;;;5.20;;
8001;SDS011;4046;48.774;8.732;2022-12-18T13:20:45;5.83;;;5.33;;
8001;SDS011;4046;48.774;8.732;2022-12-18T13:28:21;9.90;;;6.40;;
8001;SDS011;4046;48.774;8.732;2022-12-18T13:31:06;8.00;;;5.83;;
8001;SDS011;4046;48.774;8.732;2022-12-18T13:39:08;6.67;;;5.50;;
8001;SDS011;4046;48.774;8.732;2022-12-18T13:41:36;9.07;;;5.93;;
8001;SDS011;4046;48.774;8.732;2022-12-18T13:44:24;6.27;;;5.13;;
8001;SDS011;4046;48.774;8.732;2022-12-18T13:46:58;9.23;;;6.90;;
8001;SDS011;4046;48.774;8.732;2022-12-18T13:49:37;7.30;;;6.10;;
8001;SDS011;4046;48.774;8.732;2022-12-18T13:52:22;7.13;;;6.00;;
8001;SDS011;4046;48.774;8.732;2022-12-18T13:54:51;6.03;;;5.53;;
8001;SDS011;4046;48.774;8.732;2022-12-18T13:57:30;6.47;;;5.90;;
8001;SDS011;4046;48.774;8.732;2022-12-18T14:00:23;6.50;;;5.90;;
8001;SDS011;4046;48.774;8.732;2022-12-18T14:02:55;6.53;;;5.93;;
8001;SDS011;4046;48.774;8.732;2022-12-18T14:05:32;6.27;;;5.67;;
8001;SDS011;4046;48.774;8.732;2022-12-18T14:08:04;6.07;;;5.57;;
8001;SDS011;4046;48.774;8.732;2022-12-18T14:10:33;8.40;;;6.07;;
8001;SDS011;4046;48.774;8.732;2022-12-18T14:13:05;11.53;;;6.60;;
8001;SDS011;4046;48.774;8.732;2022-12-18T14:15:35;10.00;;;7.17;;
8001;SDS011;4046;48.774;8.732;2022-12-18T14:18:25;6.77;;;6.17;;
8001;SDS011;4046;48.774;8.732;2022-12-18T14:20:58;9.10;;;6.60;;
8001;SDS011;4046;48.774;8.732;2022-12-18T14:23:27;7.70;;;6.90;;
8001;SDS011;4046;48.774;8.732;2022-12-18T14:25:56;7.40;;;6.70;;
8001;SDS011;4046;48.774;8.732;2022-12-18T14:28:22;7.80;;;6.40;;
8001;SDS011;4046;48.774;8.732;2022-12-18T14:30:49;6.57;;;6.03;;
8001;SDS011;4046;48.774;8.732;2022-12-18T14:33:20;7.53;;;6.80;;
8001;SDS011;4046;48.774;8.732;2022-12-18T14:35:56;6.47;;;5.83;;
8001;SDS011;4046;48.774;8.732;2022-12-18T14:38:30;7.50;;;5.50;;
8001;SDS011;4046;48.774;8.732;2022-12-18T14:41:00;7.30;;;6.60;;
8001;SDS011;4046;48.774;8.732;2022-12-18T14:43:32;6.20;;;5.43;;
8001;SDS011;4046;48.774;8.732;2022-12-18T14:46:00;6.67;;;5.97;;
8001;SDS011;4046;48.774;8.732;2022-12-18T14:53:37;6.60;;;5.90;;
8001;SDS011;4046;48.774;8.732;2022-12-18T14:56:42;8.60;;;7.77;;
8001;SDS011;4046;48.774;8.732;2022-12-18T14:59:03;7.83;;;7.03;;
8001;SDS011;4046;48.774;8.732;2022-12-18T15:01:38;8.40;;;7.30;;
8001;SDS011;4046;48.774;8.732;2022-12-18T15:04:25;7.90;;;7.20;;
8001;SDS011;4046;48.774;8.732;2022-12-18T15:09:40;8.13;;;7.43;;
8001;SDS011;4046;48.774;8.732;2022-12-18T15:12:24;13.67;;;7.30;;
8001;SDS011;4046;48.774;8.732;2022-12-18T15:14:58;7.93;;;7.13;;
8001;SDS011;4046;48.774;8.732;2022-12-18T15:17:24;8.10;;;7.37;;
8001;SDS011;4046;48.774;8.732;2022-12-18T15:19:52;8.07;;;7.27;;
8001;SDS011;4046;48.774;8.732;2022-12-18T15:22:25;7.47;;;6.87;;
8001;SDS011;4046;48.774;8.732;2022-12-18T15:24:54;7.87;;;7.17;;
8001;SDS011;4046;48.774;8.732;2022-12-18T15:27:26;9.13;;;7.80;;
8001;SDS011;4046;48.774;8.732;2022-12-18T15:32:33;12.10;;;7.53;;
8001;SDS011;4046;48.774;8.732;2022-12-18T15:37:43;11.00;;;7.60;;
8001;SDS011;4046;48.774;8.732;2022-12-18T15:40:17;7.87;;;7.17;;
8001;SDS011;4046;48.774;8.732;2022-12-18T15:42:47;9.20;;;7.70;;
8001;SDS011;4046;48.774;8.732;2022-12-18T15:45:33;8.00;;;6.80;;
8001;SDS011;4046;48.774;8.732;2022-12-18T15:47:59;13.30;;;7.33;;
8001;SDS011;4046;48.774;8.732;2022-12-18T15:50:28;8.03;;;7.23;;
8001;SDS011;4046;48.774;8.732;2022-12-18T15:52:55;8.10;;;7.40;;
8001;SDS011;4046;48.774;8.732;2022-12-18T15:55:22;8.17;;;6.80;;
8001;SDS011;4046;48.774;8.732;2022-12-18T15:58:08;10.50;;;6.90;;
8001;SDS011;4046;48.774;8.732;2022-12-18T16:00:36;8.23;;;7.47;;
8001;SDS011;4046;48.774;8.732;2022-12-18T16:03:04;8.80;;;7.90;;
8001;SDS011;4046;48.774;8.732;2022-12-18T16:05:30;10.00;;;7.23;;
8001;SDS011;4046;48.774;8.732;2022-12-18T16:07:57;7.73;;;7.03;;
8001;SDS011;4046;48.774;8.732;2022-12-18T16:10:24;7.43;;;6.73;;
8001;SDS011;4046;48.774;8.732;2022-12-18T16:12:51;10.47;;;6.83;;
8001;SDS011;4046;48.774;8.732;2022-12-18T16:15:18;12.03;;;7.50;;
8001;SDS011;4046;48.774;8.732;2022-12-18T16:17:45;9.17;;;6.53;;
8001;SDS011;4046;48.774;8.732;2022-12-18T16:20:16;10.97;;;7.13;;
8001;SDS011;4046;48.774;8.732;2022-12-18T16:22:47;7.47;;;6.67;;
8001;SDS011;4046;48.774;8.732;2022-12-18T16:25:20;9.80;;;7.03;;
8001;SDS011;4046;48.774;8.732;2022-12-18T16:27:52;9.90;;;7.33;;
8001;SDS011;4046;48.774;8.732;2022-12-18T16:30:21;8.33;;;7.03;;
8001;SDS011;4046;48.774;8.732;2022-12-18T16:32:49;7.80;;;7.00;;
8001;SDS011;4046;48.774;8.732;2022-12-18T16:35:15;13.53;;;6.73;;
8001;SDS011;4046;48.774;8.732;2022-12-18T16:37:42;9.40;;;7.50;;
8001;SDS011;4046;48.774;8.732;2022-12-18T16:40:10;9.00;;;6.70;;
8001;SDS011;4046;48.774;8.732;2022-12-18T16:42:40;7.13;;;6.43;;
8001;SDS011;4046;48.774;8.732;2022-12-18T16:45:08;9.33;;;6.33;;
8001;SDS011;4046;48.774;8.732;2022-12-18T16:47:36;9.93;;;7.60;;
8001;SDS011;4046;48.774;8.732;2022-12-18T16:50:03;7.93;;;7.13;;
8001;SDS011;4046;48.774;8.732;2022-12-18T16:52:30;12.10;;;7.13;;
8001;SDS011;4046;48.774;8.732;2022-12-18T16:54:57;12.10;;;7.00;;
8001;SDS011;4046;48.774;8.732;2022-12-18T16:57:23;11.83;;;7.10;;
8001;SDS011;4046;48.774;8.732;2022-12-18T16:59:49;11.87;;;6.83;;
8001;SDS011;4046;48.774;8.732;2022-12-18T17:02:16;8.33;;;6.23;;
8001;SDS011;4046;48.774;8.732;2022-12-18T17:04:45;10.73;;;6.90;;
8001;SDS011;4046;48.774;8.732;2022-12-18T17:07:12;8.60;;;6.83;;
8001;SDS011;4046;48.774;8.732;2022-12-18T17:09:38;8.17;;;7.17;;